Time;durP1;ratioP1;P1;durP2;ratioP2;P2;SDS_P1;SDS_P2;PMS_P1;PMS_P2;Temp;Humidity;BMP_temperature;BMP_pressure;BME280_temperature;BME280_humidity;BME280_pressure;Samples;Min_cycle;Max_cycle;Signal;HPM_P1;HPM_P2
2023/09/18 00:01:11;;;;;;;;;;;;;;;;;;2198261;59;3577;-25
2023/09/18 00:03:42;;;;;;;;;;;;;;;;;;2198430;66;2347;-24
2023/09/18 00:06:13;;;;;;;;;;;;;;;;;;2198869;59;2876;-25
2023/09/18 00:08:43;;;;;;;;;;;;;;;;;;2199294;66;2526;-25
2023/09/18 00:11:13;;;;;;;;;;;;;;;;;;2198600;59;2557;-25
2023/09/18 00:13:44;;;;;;;;;;;;;;;;;;2198914;59;2684;-25
2023/09/18 00:16:14;;;;;;;;;;;;;;;;;;2199579;66;1841;-25
2023/09/18 00:18:44;;;;;;;;;;;;;;;;;;2199733;59;3296;-24
2023/09/18 00:21:15;;;;;;;;;;;;;;;;;;2197958;66;3334;-25
2023/09/18 00:23:46;;;;;;;;;;;;;;;;;;2199395;59;2294;-24
2023/09/18 00:26:17;;;;;;;;;;;;;;;;;;2199604;59;2593;-23
2023/09/18 00:28:47;;;;;;;;;;;;;;;;;;2200075;59;2549;-24
2023/09/18 00:31:18;;;;;;;;;;;;;;;;;;2197867;59;2267;-24
2023/09/18 00:33:49;;;;;;;;;;;;;;;;;;2200267;59;3746;-25
2023/09/18 00:36:19;;;;;;;;;;;;;;;;;;2202617;66;2435;-25
2023/09/18 00:38:52;;;;;;;;;;;;;;;;;;2200234;59;2576;-25
2023/09/18 00:41:23;;;;;;;;;;;;;;;;;;2200186;60;2461;-25
2023/09/18 00:43:53;;;;;;;;;;;;;;;;;;2199464;66;2833;-24
2023/09/18 00:46:24;;;;;;;;;;;;;;;;;;2199343;59;3423;-25
2023/09/18 00:48:54;;;;;;;;;;;;;;;;;;2199688;59;2615;-25
2023/09/18 00:51:25;;;;;;;;;;;;;;;;;;2199016;59;4207;-24
2023/09/18 00:53:55;;;;;;;;;;;;;;;;;;2200783;66;3676;-25
2023/09/18 00:56:28;;;;;;;;;;;;;;;;;;2200768;60;3218;-25
2023/09/18 00:58:59;;;;;;;;;;;;;;;;;;2200849;66;2464;-25
2023/09/18 01:01:29;;;;;;;;;;;;;;;;;;2201474;66;3314;-25
2023/09/18 01:04:01;;;;;;;;;;;;;;;;;;2200221;60;3319;-25
2023/09/18 01:06:31;;;;;;;;;;;;;;;;;;2200706;59;2904;-25
2023/09/18 01:09:04;;;;;;;;;;;;;;;;;;2199533;66;3501;-25
2023/09/18 01:11:44;;;;;;;;;;;;;;;;;;2200362;59;3367;-25
2023/09/18 01:14:25;;;;;;;;;;;;;;;;;;2199284;59;2588;-25
2023/09/18 01:17:01;;;;;;;;;;;;;;;;;;2200712;59;2336;-25
2023/09/18 01:19:39;;;;;;;;;;;;;;;;;;2203996;59;2467;-25
2023/09/18 01:22:09;;;;;;;;;;;;;;;;;;2199547;66;2664;-24
2023/09/18 01:24:41;;;;;;;;;;;;;;;;;;2201139;66;2422;-24
2023/09/18 01:27:16;;;;;;;;;;;;;;;;;;2200166;59;2747;-24
2023/09/18 01:29:47;;;;;;;;;;;;;;;;;;2200820;66;3277;-25
2023/09/18 01:32:17;;;;;;;;;;;;;;;;;;2199629;59;2018;-25
2023/09/18 01:34:49;;;;;;;;;;;;;;;;;;2200219;66;2340;-25
2023/09/18 01:37:22;;;;;;;;;;;;;;;;;;2198654;60;3358;-25
2023/09/18 01:39:53;;;;;;;;;;;;;;;;;;2200531;59;3504;-24
2023/09/18 01:42:24;;;;;;;;;;;;;;;;;;2200269;59;3478;-24
2023/09/18 01:44:55;;;;;;;;;;;;;;;;;;2200270;59;3176;-25
2023/09/18 01:47:28;;;;;;;;;;;;;;;;;;2201039;66;2414;-25
2023/09/18 01:50:02;;;;;;;;;;;;;;;;;;2200308;59;2160;-24
2023/09/18 01:52:34;;;;;;;;;;;;;;;;;;2200386;59;2099;-24
2023/09/18 01:55:05;;;;;;;;;;;;;;;;;;2200228;66;3567;-24
2023/09/18 01:57:37;;;;;;;;;;;;;;;;;;2200504;66;3093;-24
2023/09/18 02:00:09;;;;;;;;;;;;;;;;;;2199919;66;3082;-24
2023/09/18 02:02:40;;;;;;;;;;;;;;;;;;2199444;66;3872;-25
2023/09/18 02:05:10;;;;;;;;;;;;;;;;;;2198613;66;2476;-24
2023/09/18 02:07:41;;;;;;;;;;;;;;;;;;2200482;59;2154;-25
2023/09/18 02:10:12;;;;;;;;;;;;;;;;;;2199677;59;2886;-24
2023/09/18 02:12:42;;;;;;;;;;;;;;;;;;2201587;59;2609;-24
2023/09/18 02:15:13;;;;;;;;;;;;;;;;;;2198089;59;2358;-25
2023/09/18 02:17:44;;;;;;;;;;;;;;;;;;2198943;66;3464;-25
2023/09/18 02:20:14;;;;;;;;;;;;;;;;;;2198426;59;3367;-24
2023/09/18 02:22:46;;;;;;;;;;;;;;;;;;2199366;60;2734;-25
2023/09/18 02:25:17;;;;;;;;;;;;;;;;;;2198344;60;2871;-25
2023/09/18 02:27:47;;;;;;;;;;;;;;;;;;2199372;59;2713;-24
2023/09/18 02:30:19;;;;;;;;;;;;;;;;;;2198520;59;2697;-25
2023/09/18 02:32:49;;;;;;;;;;;;;;;;;;2199953;59;2376;-24
2023/09/18 02:35:19;;;;;;;;;;;;;;;;;;2199167;59;2529;-24
2023/09/18 02:37:49;;;;;;;;;;;;;;;;;;2200862;59;2466;-24
2023/09/18 02:40:20;;;;;;;;;;;;;;;;;;2200166;66;4124;-24
2023/09/18 02:42:50;;;;;;;;;;;;;;;;;;2199864;59;2692;-24
2023/09/18 02:45:20;;;;;;;;;;;;;;;;;;2199194;59;3373;-25
2023/09/18 02:47:51;;;;;;;;;;;;;;;;;;2201793;59;3646;-25
2023/09/18 02:50:21;;;;;;;;;;;;;;;;;;2200228;59;2971;-24
2023/09/18 02:52:51;;;;;;;;;;;;;;;;;;2199841;59;2710;-25
2023/09/18 02:55:21;;;;;;;;;;;;;;;;;;2199800;59;2230;-25
2023/09/18 02:57:53;;;;;;;;;;;;;;;;;;2200007;66;3226;-25
2023/09/18 03:00:23;;;;;;;;;;;;;;;;;;2200207;66;2798;-25
2023/09/18 03:02:53;;;;;;;;;;;;;;;;;;2200167;66;2235;-25
2023/09/18 03:05:24;;;;;;;;;;;;;;;;;;2200231;59;2616;-25
2023/09/18 03:07:54;;;;;;;;;;;;;;;;;;2200649;66;2302;-25
2023/09/18 03:10:24;;;;;;;;;;;;;;;;;;2199361;59;2442;-25
2023/09/18 03:12:55;;;;;;;;;;;;;;;;;;2199891;60;2249;-25
2023/09/18 03:15:25;;;;;;;;;;;;;;;;;;2198769;59;3210;-25
2023/09/18 03:17:56;;;;;;;;;;;;;;;;;;2199712;60;2491;-25
2023/09/18 03:20:29;;;;;;;;;;;;;;;;;;2199071;59;2969;-24
2023/09/18 03:23:01;;;;;;;;;;;;;;;;;;2200000;66;2675;-24
2023/09/18 03:25:31;;;;;;;;;;;;;;;;;;2199165;59;2653;-24
2023/09/18 03:28:01;;;;;;;;;;;;;;;;;;2200830;59;4080;-25
2023/09/18 03:30:36;;;;;;;;;;;;;;;;;;2200171;59;3633;-24
2023/09/18 03:33:06;;;;;;;;;;;;;;;;;;2199455;59;2436;-24
2023/09/18 03:35:50;;;;;;;;;;;;;;;;;;2200028;59;3376;-24
2023/09/18 03:38:21;;;;;;;;;;;;;;;;;;2199447;59;2677;-24
2023/09/18 03:40:51;;;;;;;;;;;;;;;;;;2199933;66;3224;-24
2023/09/18 03:43:22;;;;;;;;;;;;;;;;;;2200484;59;2569;-24
2023/09/18 03:45:52;;;;;;;;;;;;;;;;;;2199942;59;3039;-24
2023/09/18 03:48:22;;;;;;;;;;;;;;;;;;2199576;59;2504;-24
2023/09/18 03:50:52;;;;;;;;;;;;;;;;;;2199815;59;3596;-24
2023/09/18 03:53:23;;;;;;;;;;;;;;;;;;2198538;66;2821;-24
2023/09/18 03:55:53;;;;;;;;;;;;;;;;;;2199232;66;2199;-24
2023/09/18 03:58:23;;;;;;;;;;;;;;;;;;2198755;60;3973;-24
2023/09/18 04:00:54;;;;;;;;;;;;;;;;;;2196414;59;2459;-24
2023/09/18 04:03:24;;;;;;;;;;;;;;;;;;2195162;59;3302;-24
2023/09/18 04:05:55;;;;;;;;;;;;;;;;;;2200319;59;1975;-24
2023/09/18 04:08:26;;;;;;;;;;;;;;;;;;2198781;59;2257;-24
2023/09/18 04:10:59;;;;;;;;;;;;;;;;;;2199640;66;3368;-24
2023/09/18 04:13:29;;;;;;;;;;;;;;;;;;2199360;59;3219;-24
2023/09/18 04:16:00;;;;;;;;;;;;;;;;;;2201330;66;2369;-24
2023/09/18 04:18:30;;;;;;;;;;;;;;;;;;2199086;59;3448;-24
2023/09/18 04:21:01;;;;;;;;;;;;;;;;;;2200511;59;1798;-24
2023/09/18 04:23:31;;;;;;;;;;;;;;;;;;2199597;66;2567;-24
2023/09/18 04:26:01;;;;;;;;;;;;;;;;;;2200163;66;2181;-24
2023/09/18 04:28:32;;;;;;;;;;;;;;;;;;2201860;59;3125;-24
2023/09/18 04:31:02;;;;;;;;;;;;;;;;;;2200439;59;3788;-24
2023/09/18 04:33:33;;;;;;;;;;;;;;;;;;2199440;66;3138;-24
2023/09/18 04:36:03;;;;;;;;;;;;;;;;;;2197401;59;3740;-24
2023/09/18 04:38:34;;;;;;;;;;;;;;;;;;2200525;59;2273;-24
2023/09/18 04:41:04;;;;;;;;;;;;;;;;;;2200832;59;2189;-24
2023/09/18 04:43:34;;;;;;;;;;;;;;;;;;2200046;60;2260;-24
2023/09/18 04:46:05;;;;;;;;;;;;;;;;;;2200286;59;3556;-24
2023/09/18 04:48:35;;;;;;;;;;;;;;;;;;2197129;59;3179;-24
2023/09/18 04:51:06;;;;;;;;;;;;;;;;;;2200936;59;2146;-24
2023/09/18 04:53:36;;;;;;;;;;;;;;;;;;2198585;66;2623;-24
2023/09/18 04:56:07;;;;;;;;;;;;;;;;;;2200154;66;2942;-24
2023/09/18 04:58:38;;;;;;;;;;;;;;;;;;2200058;59;3372;-24
2023/09/18 05:01:08;;;;;;;;;;;;;;;;;;2199667;66;4039;-24
2023/09/18 05:03:41;;;;;;;;;;;;;;;;;;2198529;59;2676;-24
2023/09/18 05:06:11;;;;;;;;;;;;;;;;;;2199115;59;3688;-24
2023/09/18 05:08:43;;;;;;;;;;;;;;;;;;2199625;66;2695;-24
2023/09/18 05:11:13;;;;;;;;;;;;;;;;;;2198733;59;3684;-25
2023/09/18 05:13:44;;;;;;;;;;;;;;;;;;2201377;66;3672;-25
2023/09/18 05:16:14;;;;;;;;;;;;;;;;;;2198827;59;2588;-25
2023/09/18 05:18:44;;;;;;;;;;;;;;;;;;2200060;66;3584;-25
2023/09/18 05:21:14;;;;;;;;;;;;;;;;;;2199166;59;3317;-25
2023/09/18 05:23:45;;;;;;;;;;;;;;;;;;2200189;60;2478;-24
2023/09/18 05:26:16;;;;;;;;;;;;;;;;;;2198311;66;2505;-25
2023/09/18 05:28:47;;;;;;;;;;;;;;;;;;2199700;59;3980;-25
2023/09/18 05:31:17;;;;;;;;;;;;;;;;;;2198827;59;3547;-25
2023/09/18 05:33:48;;;;;;;;;;;;;;;;;;2199543;59;2385;-25
2023/09/18 05:36:18;;;;;;;;;;;;;;;;;;2199306;66;4869;-25
2023/09/18 05:38:49;;;;;;;;;;;;;;;;;;2200604;59;2635;-25
2023/09/18 05:41:26;;;;;;;;;;;;;;;;;;2198309;59;2378;-24
2023/09/18 05:43:56;;;;;;;;;;;;;;;;;;2198800;66;2586;-25
2023/09/18 05:46:26;;;;;;;;;;;;;;;;;;2199683;59;2938;-24
2023/09/18 05:48:58;;;;;;;;;;;;;;;;;;2198974;59;3096;-25
2023/09/18 05:51:29;;;;;;;;;;;;;;;;;;2198879;59;2339;-24
2023/09/18 05:54:00;;;;;;;;;;;;;;;;;;2200515;66;2219;-25
2023/09/18 05:56:30;;;;;;;;;;;;;;;;;;2199799;66;2369;-25
2023/09/18 05:59:00;;;;;;;;;;;;;;;;;;2201178;59;3202;-25
2023/09/18 06:01:32;;;;;;;;;;;;;;;;;;2198590;59;2488;-25
2023/09/18 06:04:03;;;;;;;;;;;;;;;;;;2201237;66;2229;-25
2023/09/18 06:06:33;;;;;;;;;;;;;;;;;;2199868;59;2505;-25
2023/09/18 06:09:04;;;;;;;;;;;;;;;;;;2200589;59;2395;-25
2023/09/18 06:11:34;;;;;;;;;;;;;;;;;;2198970;58;3308;-25
2023/09/18 06:14:04;;;;;;;;;;;;;;;;;;2200487;59;3546;-25
2023/09/18 06:16:35;;;;;;;;;;;;;;;;;;2199364;59;2634;-25
2023/09/18 06:19:05;;;;;;;;;;;;;;;;;;2200753;59;3856;-25
2023/09/18 06:21:35;;;;;;;;;;;;;;;;;;2200107;59;2991;-23
2023/09/18 06:24:06;;;;;;;;;;;;;;;;;;2200977;59;3750;-24
2023/09/18 06:26:36;;;;;;;;;;;;;;;;;;2200718;66;2143;-24
2023/09/18 06:29:09;;;;;;;;;;;;;;;;;;2200730;59;3403;-25
2023/09/18 06:31:39;;;;;;;;;;;;;;;;;;2198920;66;3340;-25
2023/09/18 06:34:09;;;;;;;;;;;;;;;;;;2200556;66;2474;-23
2023/09/18 06:36:40;;;;;;;;;;;;;;;;;;2199267;59;2251;-25
2023/09/18 06:39:10;;;;;;;;;;;;;;;;;;2201402;59;2329;-24
2023/09/18 06:41:40;;;;;;;;;;;;;;;;;;2202042;59;3372;-25
2023/09/18 06:44:11;;;;;;;;;;;;;;;;;;2199829;59;2985;-23
2023/09/18 06:46:41;;;;;;;;;;;;;;;;;;2199021;66;3390;-23
2023/09/18 06:49:11;;;;;;;;;;;;;;;;;;2198584;59;2779;-23
2023/09/18 06:51:42;;;;;;;;;;;;;;;;;;2198724;59;2591;-23
2023/09/18 06:54:12;;;;;;;;;;;;;;;;;;2200949;66;2278;-23
2023/09/18 06:56:44;;;;;;;;;;;;;;;;;;2198861;59;2331;-25
2023/09/18 06:59:17;;;;;;;;;;;;;;;;;;2199964;66;2387;-25
2023/09/18 07:01:48;;;;;;;;;;;;;;;;;;2198353;59;2727;-25
2023/09/18 07:04:18;;;;;;;;;;;;;;;;;;2200216;66;2607;-24
2023/09/18 07:06:49;;;;;;;;;;;;;;;;;;2200431;59;2425;-24
2023/09/18 07:09:22;;;;;;;;;;;;;;;;;;2199042;66;3026;-25
2023/09/18 07:11:53;;;;;;;;;;;;;;;;;;2199859;59;2216;-24
2023/09/18 07:14:23;;;;;;;;;;;;;;;;;;2199295;59;3515;-25
2023/09/18 07:16:53;;;;;;;;;;;;;;;;;;2197683;66;3664;-24
2023/09/18 07:19:24;;;;;;;;;;;;;;;;;;2199511;59;2299;-25
2023/09/18 07:21:54;;;;;;;;;;;;;;;;;;2199802;66;3029;-25
2023/09/18 07:24:24;;;;;;;;;;;;;;;;;;2198217;66;2212;-24
2023/09/18 07:26:54;;;;;;;;;;;;;;;;;;2198921;59;3420;-25
2023/09/18 07:29:25;;;;;;;;;;;;;;;;;;2197999;66;2200;-24
2023/09/18 07:32:01;;;;;;;;;;;;;;;;;;2199156;59;2318;-24
2023/09/18 07:34:32;;;;;;;;;;;;;;;;;;2198231;59;2768;-24
2023/09/18 07:37:02;;;;;;;;;;;;;;;;;;2200464;59;2252;-25
2023/09/18 07:39:32;;;;;;;;;;;;;;;;;;2199478;59;2581;-25
2023/09/18 07:42:03;;;;;;;;;;;;;;;;;;2198991;59;2346;-24
2023/09/18 07:44:34;;;;;;;;;;;;;;;;;;2195515;59;2449;-24
2023/09/18 07:47:04;;;;;;;;;;;;;;;;;;2199548;59;2493;-24
2023/09/18 07:49:35;;;;;;;;;;;;;;;;;;2198764;59;3042;-37
2023/09/18 07:52:05;;;;;;;;;;;;;;;;;;2199303;59;2818;-24
2023/09/18 07:54:35;;;;;;;;;;;;;;;;;;2198793;59;1812;-24
2023/09/18 07:57:09;;;;;;;;;;;;;;;;;;2198911;66;2166;-24
2023/09/18 07:59:39;;;;;;;;;;;;;;;;;;2197963;66;2383;-24
2023/09/18 08:02:10;;;;;;;;;;;;;;;;;;2199460;66;2178;-25
2023/09/18 08:04:43;;;;;;;;;;;;;;;;;;2198623;59;3254;-24
2023/09/18 08:07:14;;;;;;;;;;;;;;;;;;2199753;59;3511;-25
2023/09/18 08:09:44;;;;;;;;;;;;;;;;;;2197657;64;4237;-25
2023/09/18 08:12:14;;;;;;;;;;;;;;;;;;2196351;59;1871;-25
2023/09/18 08:14:45;;;;;;;;;;;;;;;;;;2198460;59;3416;-24
2023/09/18 08:17:15;;;;;;;;;;;;;;;;;;2199483;59;2656;-25
2023/09/18 08:19:45;;;;;;;;;;;;;;;;;;2198359;59;2546;-25
2023/09/18 08:22:16;;;;;;;;;;;;;;;;;;2198319;66;3129;-25
2023/09/18 08:24:48;;;;;;;;;;;;;;;;;;2198904;66;2091;-25
2023/09/18 08:27:18;;;;;;;;;;;;;;;;;;2199229;59;2719;-25
2023/09/18 08:29:49;;;;;;;;;;;;;;;;;;2198748;59;2460;-25
2023/09/18 08:32:19;;;;;;;;;;;;;;;;;;2199652;59;3707;-25
2023/09/18 08:34:49;;;;;;;;;;;;;;;;;;2199218;66;2989;-25
2023/09/18 08:37:20;;;;;;;;;;;;;;;;;;2199168;60;2556;-25
2023/09/18 08:39:50;;;;;;;;;;;;;;;;;;2195534;66;3482;-25
2023/09/18 08:42:21;;;;;;;;;;;;;;;;;;2199550;59;2683;-25
2023/09/18 08:44:54;;;;;;;;;;;;;;;;;;2198527;59;2336;-25
2023/09/18 08:47:24;;;;;;;;;;;;;;;;;;2198409;66;2470;-25
2023/09/18 08:49:55;;;;;;;;;;;;;;;;;;2199654;59;3388;-25
2023/09/18 08:52:25;;;;;;;;;;;;;;;;;;2195660;59;3520;-25
2023/09/18 08:54:56;;;;;;;;;;;;;;;;;;2200094;59;2357;-25
2023/09/18 08:57:27;;;;;;;;;;;;;;;;;;2198649;59;2502;-25
2023/09/18 08:59:58;;;;;;;;;;;;;;;;;;2200656;66;3546;-24
2023/09/18 09:02:28;;;;;;;;;;;;;;;;;;2199034;62;3152;-25
2023/09/18 09:04:59;;;;;;;;;;;;;;;;;;2201126;66;2623;-25
2023/09/18 09:07:32;;;;;;;;;;;;;;;;;;2199308;59;2822;-26
2023/09/18 09:10:03;;;;;;;;;;;;;;;;;;2200676;66;3524;-26
2023/09/18 09:13:01;;;;;;;;;;;;;;;;;;2199076;59;2779;-26
2023/09/18 09:15:35;;;;;;;;;;;;;;;;;;2199446;59;3046;-26
2023/09/18 09:18:06;;;;;;;;;;;;;;;;;;2200745;59;3244;-26
2023/09/18 09:20:37;;;;;;;;;;;;;;;;;;2199490;59;4458;-26
2023/09/18 09:23:08;;;;;;;;;;;;;;;;;;2199422;59;2825;-26
2023/09/18 09:25:39;;;;;;;;;;;;;;;;;;2200958;62;3715;-26
2023/09/18 09:28:09;;;;;;;;;;;;;;;;;;2201043;59;3302;-27
2023/09/18 09:30:39;;;;;;;;;;;;;;;;;;2199713;66;3455;-27
2023/09/18 09:33:12;;;;;;;;;;;;;;;;;;2200484;59;4100;-26
2023/09/18 09:35:42;;;;;;;;;;;;;;;;;;2200545;66;2356;-27
2023/09/18 09:38:15;;;;;;;;;;;;;;;;;;2200188;59;2641;-27
2023/09/18 09:40:46;;;;;;;;;;;;;;;;;;2200905;59;3408;-28
2023/09/18 09:43:18;;;;;;;;;;;;;;;;;;2200631;59;3437;-27
2023/09/18 09:45:48;;;;;;;;;;;;;;;;;;2200014;59;2469;-27
2023/09/18 09:48:19;;;;;;;;;;;;;;;;;;2201453;59;2523;-27
2023/09/18 09:50:50;;;;;;;;;;;;;;;;;;2198707;66;2506;-27
2023/09/18 09:53:40;;;;;;;;;;;;;;;;;;2199507;59;3532;-27
2023/09/18 09:56:11;;;;;;;;;;;;;;;;;;2199598;66;3601;-27
2023/09/18 09:58:43;;;;;;;;;;;;;;;;;;2196382;59;4188;-29
2023/09/18 10:01:17;;;;;;;;;;;;;;;;;;2199671;66;1728;-27
2023/09/18 10:03:48;;;;;;;;;;;;;;;;;;2202769;66;2684;-27
2023/09/18 10:06:18;;;;;;;;;;;;;;;;;;2199703;59;2220;-26
2023/09/18 10:08:49;;;;;;;;;;;;;;;;;;2199800;59;4082;-27
2023/09/18 10:11:20;;;;;;;;;;;;;;;;;;2199821;59;1826;-27
2023/09/18 10:13:57;;;;;;;;;;;;;;;;;;2199503;59;2787;-28
2023/09/18 10:16:30;;;;;;;;;;;;;;;;;;2199449;59;2587;-28
2023/09/18 10:19:08;;;;;;;;;;;;;;;;;;2201866;59;2117;-28
2023/09/18 10:21:48;;;;;;;;;;;;;;;;;;2198640;59;3245;-26
2023/09/18 10:24:20;;;;;;;;;;;;;;;;;;2199871;63;3555;-26
2023/09/18 10:26:56;;;;;;;;;;;;;;;;;;2199502;59;2520;-26
2023/09/18 10:29:26;;;;;;;;;;;;;;;;;;2203408;66;2220;-28
2023/09/18 10:31:56;;;;;;;;;;;;;;;;;;2199126;66;2537;-28
2023/09/18 10:34:27;;;;;;;;;;;;;;;;;;2200338;59;2690;-27
2023/09/18 10:37:00;;;;;;;;;;;;;;;;;;2199021;59;2566;-27
2023/09/18 10:39:30;;;;;;;;;;;;;;;;;;2198746;66;3416;-26
2023/09/18 10:42:02;;;;;;;;;;;;;;;;;;2199481;59;3367;-26
2023/09/18 10:44:32;;;;;;;;;;;;;;;;;;2198769;59;3557;-26
2023/09/18 10:47:05;;;;;;;;;;;;;;;;;;2199852;66;3801;-26
2023/09/18 10:49:36;;;;;;;;;;;;;;;;;;2198957;59;2344;-26
2023/09/18 10:52:10;;;;;;;;;;;;;;;;;;2198482;59;3031;-26
2023/09/18 10:54:44;;;;;;;;;;;;;;;;;;2198326;59;3457;-26
2023/09/18 10:57:15;;;;;;;;;;;;;;;;;;2199523;60;3819;-26
2023/09/18 10:59:46;;;;;;;;;;;;;;;;;;2198727;60;2985;-26
2023/09/18 11:02:17;;;;;;;;;;;;;;;;;;2199865;66;2550;-26
2023/09/18 11:04:47;;;;;;;;;;;;;;;;;;2199333;66;3323;-26
2023/09/18 11:07:21;;;;;;;;;;;;;;;;;;2199436;59;2778;-26
2023/09/18 11:09:52;;;;;;;;;;;;;;;;;;2198856;60;3210;-26
2023/09/18 11:12:41;;;;;;;;;;;;;;;;;;2199850;59;3495;-26
2023/09/18 11:15:38;;;;;;;;;;;;;;;;;;2199664;59;3534;-26
2023/09/18 11:18:08;;;;;;;;;;;;;;;;;;2200416;59;2460;-26
2023/09/18 11:20:41;;;;;;;;;;;;;;;;;;2199668;58;3356;-26
2023/09/18 11:23:14;;;;;;;;;;;;;;;;;;2199761;59;2117;-26
2023/09/18 11:25:45;;;;;;;;;;;;;;;;;;2199175;59;2465;-26
2023/09/18 11:28:19;;;;;;;;;;;;;;;;;;2198648;59;2570;-26
2023/09/18 11:30:58;;;;;;;;;;;;;;;;;;2198927;59;3631;-25
2023/09/18 11:33:36;;;;;;;;;;;;;;;;;;2199476;59;2793;-26
2023/09/18 11:36:06;;;;;;;;;;;;;;;;;;2200799;59;1546;-26
2023/09/18 11:38:55;;;;;;;;;;;;;;;;;;2198648;59;4101;-26
2023/09/18 11:41:30;;;;;;;;;;;;;;;;;;2200309;59;2432;-25
2023/09/18 11:44:13;;;;;;;;;;;;;;;;;;2201467;59;2905;-25
2023/09/18 11:46:48;;;;;;;;;;;;;;;;;;2198844;59;2205;-25
2023/09/18 11:49:21;;;;;;;;;;;;;;;;;;2200909;59;3253;-26
2023/09/18 11:51:52;;;;;;;;;;;;;;;;;;2199193;59;2443;-26
2023/09/18 11:54:22;;;;;;;;;;;;;;;;;;2198457;59;2507;-26
2023/09/18 11:56:53;;;;;;;;;;;;;;;;;;2199696;66;2306;-27
2023/09/18 11:59:33;;;;;;;;;;;;;;;;;;2198663;59;2036;-27
2023/09/18 12:02:05;;;;;;;;;;;;;;;;;;2198700;59;3770;-27
2023/09/18 12:04:36;;;;;;;;;;;;;;;;;;2201351;59;2858;-27
2023/09/18 12:07:08;;;;;;;;;;;;;;;;;;2199569;59;3448;-28
2023/09/18 12:09:39;;;;;;;;;;;;;;;;;;2196754;59;3602;-27
2023/09/18 12:12:10;;;;;;;;;;;;;;;;;;2200160;59;2168;-27
2023/09/18 12:14:44;;;;;;;;;;;;;;;;;;2198411;59;3199;-27
2023/09/18 12:17:15;;;;;;;;;;;;;;;;;;2200261;59;2398;-28
2023/09/18 12:19:53;;;;;;;;;;;;;;;;;;2199835;59;2120;-27
2023/09/18 12:22:27;;;;;;;;;;;;;;;;;;2196744;59;2930;-27
2023/09/18 12:25:11;;;;;;;;;;;;;;;;;;2198808;66;2923;-27
2023/09/18 12:27:41;;;;;;;;;;;;;;;;;;2197881;59;3130;-27
2023/09/18 12:30:15;;;;;;;;;;;;;;;;;;2199350;59;3878;-27
2023/09/18 12:32:45;;;;;;;;;;;;;;;;;;2196049;59;2549;-27
2023/09/18 12:35:18;;;;;;;;;;;;;;;;;;2199344;66;2933;-27
2023/09/18 12:37:49;;;;;;;;;;;;;;;;;;2198399;59;3745;-27
2023/09/18 12:40:30;;;;;;;;;;;;;;;;;;2199571;66;3452;-27
2023/09/18 12:43:01;;;;;;;;;;;;;;;;;;2197884;59;3372;-27
2023/09/18 12:45:31;;;;;;;;;;;;;;;;;;2198791;59;2520;-27
2023/09/18 12:48:03;;;;;;;;;;;;;;;;;;2197811;59;3892;-27
2023/09/18 12:50:34;;;;;;;;;;;;;;;;;;2199781;59;4139;-27
2023/09/18 12:53:08;;;;;;;;;;;;;;;;;;2199352;59;2297;-27
2023/09/18 12:55:39;;;;;;;;;;;;;;;;;;2198787;59;3202;-27
2023/09/18 12:58:10;;;;;;;;;;;;;;;;;;2200064;66;1502;-27
2023/09/18 13:00:49;;;;;;;;;;;;;;;;;;2198457;59;3709;-27
2023/09/18 13:03:19;;;;;;;;;;;;;;;;;;2198587;59;3526;-27
2023/09/18 13:05:54;;;;;;;;;;;;;;;;;;2198600;59;3896;-27
2023/09/18 13:08:24;;;;;;;;;;;;;;;;;;2198892;66;1797;-26
2023/09/18 13:10:55;;;;;;;;;;;;;;;;;;2198224;66;2427;-26
2023/09/18 13:13:25;;;;;;;;;;;;;;;;;;2196113;59;3121;-26
2023/09/18 13:16:00;;;;;;;;;;;;;;;;;;2197821;59;3476;-26
2023/09/18 13:18:31;;;;;;;;;;;;;;;;;;2198600;59;1742;-26
2023/09/18 13:21:09;;;;;;;;;;;;;;;;;;2198394;59;1274;-26
2023/09/18 13:23:40;;;;;;;;;;;;;;;;;;2202156;66;1931;-27
2023/09/18 13:26:10;;;;;;;;;;;;;;;;;;2199125;59;1565;-26
2023/09/18 13:28:42;;;;;;;;;;;;;;;;;;2198498;59;1753;-27
2023/09/18 13:31:13;;;;;;;;;;;;;;;;;;2198716;59;1432;-27
2023/09/18 13:33:44;;;;;;;;;;;;;;;;;;2199032;66;1651;-26
2023/09/18 13:36:15;;;;;;;;;;;;;;;;;;2199887;66;1665;-26
2023/09/18 13:38:45;;;;;;;;;;;;;;;;;;2196398;59;1643;-26
2023/09/18 13:41:16;;;;;;;;;;;;;;;;;;2200120;59;1203;-26
2023/09/18 13:43:47;;;;;;;;;;;;;;;;;;2197252;66;1938;-26
2023/09/18 13:46:17;;;;;;;;;;;;;;;;;;2199339;59;1760;-26
2023/09/18 13:48:47;;;;;;;;;;;;;;;;;;2199742;59;1220;-26
2023/09/18 13:51:18;;;;;;;;;;;;;;;;;;2199964;59;1466;-25
2023/09/18 13:53:48;;;;;;;;;;;;;;;;;;2199598;66;1822;-25
2023/09/18 13:56:20;;;;;;;;;;;;;;;;;;2199297;59;3828;-26
2023/09/18 13:58:50;;;;;;;;;;;;;;;;;;2198715;66;3878;-26
2023/09/18 14:01:22;;;;;;;;;;;;;;;;;;2199766;60;1749;-26
2023/09/18 14:03:52;;;;;;;;;;;;;;;;;;2198973;59;2575;-26
2023/09/18 14:06:23;;;;;;;;;;;;;;;;;;2197245;66;1757;-26
2023/09/18 14:08:53;;;;;;;;;;;;;;;;;;2199358;59;2647;-26
2023/09/18 14:11:23;;;;;;;;;;;;;;;;;;2198628;60;2417;-26
2023/09/18 14:13:54;;;;;;;;;;;;;;;;;;2199042;60;1989;-26
2023/09/18 14:16:25;;;;;;;;;;;;;;;;;;2199420;61;1885;-26
2023/09/18 14:18:55;;;;;;;;;;;;;;;;;;2199984;59;1906;-26
2023/09/18 14:21:30;;;;;;;;;;;;;;;;;;2199921;59;2257;-26
2023/09/18 14:24:00;;;;;;;;;;;;;;;;;;2199041;59;4020;-25
2023/09/18 14:26:31;;;;;;;;;;;;;;;;;;2199782;59;2730;-25
2023/09/18 14:29:01;;;;;;;;;;;;;;;;;;2199800;59;2319;-25
2023/09/18 14:31:32;;;;;;;;;;;;;;;;;;2200033;59;1986;-25
2023/09/18 14:34:02;;;;;;;;;;;;;;;;;;2199384;66;2990;-25
2023/09/18 14:36:33;;;;;;;;;;;;;;;;;;2200016;60;3532;-25
2023/09/18 14:39:03;;;;;;;;;;;;;;;;;;2198970;59;3384;-25
2023/09/18 14:41:37;;;;;;;;;;;;;;;;;;2200780;59;2172;-25
2023/09/18 14:44:11;;;;;;;;;;;;;;;;;;2198165;66;2746;-25
2023/09/18 14:46:43;;;;;;;;;;;;;;;;;;2199358;59;3110;-25
2023/09/18 14:49:13;;;;;;;;;;;;;;;;;;2199693;59;3507;-25
2023/09/18 14:51:43;;;;;;;;;;;;;;;;;;2199476;59;2073;-25
2023/09/18 14:54:14;;;;;;;;;;;;;;;;;;2200427;60;2305;-25
2023/09/18 14:56:48;;;;;;;;;;;;;;;;;;2199010;60;2199;-25
2023/09/18 14:59:18;;;;;;;;;;;;;;;;;;2200650;59;3822;-25
2023/09/18 15:01:49;;;;;;;;;;;;;;;;;;2199615;66;1870;-25
2023/09/18 15:04:22;;;;;;;;;;;;;;;;;;2200694;59;3618;-24
2023/09/18 15:06:52;;;;;;;;;;;;;;;;;;2200178;59;2425;-23
2023/09/18 15:09:23;;;;;;;;;;;;;;;;;;2200935;66;3015;-24
2023/09/18 15:11:53;;;;;;;;;;;;;;;;;;2200690;59;1849;-24
2023/09/18 15:14:24;;;;;;;;;;;;;;;;;;2201139;59;1846;-23
2023/09/18 15:16:55;;;;;;;;;;;;;;;;;;2201320;59;2710;-24
2023/09/18 15:19:25;;;;;;;;;;;;;;;;;;2201263;59;3124;-23
2023/09/18 15:21:57;;;;;;;;;;;;;;;;;;2201153;66;2962;-23
2023/09/18 15:24:27;;;;;;;;;;;;;;;;;;2200872;59;1991;-24
2023/09/18 15:26:57;;;;;;;;;;;;;;;;;;2201420;59;4191;-23
2023/09/18 15:29:30;;;;;;;;;;;;;;;;;;2201744;66;3801;-23
2023/09/18 15:32:02;;;;;;;;;;;;;;;;;;2199891;59;3031;-24
2023/09/18 15:34:32;;;;;;;;;;;;;;;;;;2200432;59;3151;-23
2023/09/18 15:37:04;;;;;;;;;;;;;;;;;;2200516;66;4472;-23
2023/09/18 15:39:35;;;;;;;;;;;;;;;;;;2202385;59;2970;-23
2023/09/18 15:42:05;;;;;;;;;;;;;;;;;;2200273;59;4559;-23
2023/09/18 15:44:35;;;;;;;;;;;;;;;;;;2200314;66;2015;-24
2023/09/18 15:47:06;;;;;;;;;;;;;;;;;;2200100;66;2084;-23
2023/09/18 15:49:37;;;;;;;;;;;;;;;;;;2201689;58;3170;-24
2023/09/18 15:52:07;;;;;;;;;;;;;;;;;;2200126;59;3071;-23
2023/09/18 15:54:37;;;;;;;;;;;;;;;;;;2200420;66;2419;-23
2023/09/18 15:57:08;;;;;;;;;;;;;;;;;;2199352;66;2761;-23
2023/09/18 15:59:39;;;;;;;;;;;;;;;;;;2199801;59;3469;-24
2023/09/18 16:02:10;;;;;;;;;;;;;;;;;;2199650;59;2814;-23
2023/09/18 16:04:41;;;;;;;;;;;;;;;;;;2199991;59;1850;-24
2023/09/18 16:07:13;;;;;;;;;;;;;;;;;;2199211;59;2443;-23
2023/09/18 16:09:43;;;;;;;;;;;;;;;;;;2199063;66;2141;-23
2023/09/18 16:12:13;;;;;;;;;;;;;;;;;;2198952;59;2913;-23
2023/09/18 16:14:44;;;;;;;;;;;;;;;;;;2199339;66;5174;-23
2023/09/18 16:17:15;;;;;;;;;;;;;;;;;;2198118;59;1672;-23
2023/09/18 16:19:46;;;;;;;;;;;;;;;;;;2200771;59;2457;-23
2023/09/18 16:22:16;;;;;;;;;;;;;;;;;;2199177;66;2009;-23
2023/09/18 16:24:46;;;;;;;;;;;;;;;;;;2199761;60;2844;-23
2023/09/18 16:27:19;;;;;;;;;;;;;;;;;;2199618;59;1750;-25
2023/09/18 16:29:50;;;;;;;;;;;;;;;;;;2199042;66;2633;-24
2023/09/18 16:32:21;;;;;;;;;;;;;;;;;;2198958;59;3358;-25
2023/09/18 16:34:51;;;;;;;;;;;;;;;;;;2198939;60;4221;-24
2023/09/18 16:37:21;;;;;;;;;;;;;;;;;;2199715;66;2366;-24
2023/09/18 16:39:51;;;;;;;;;;;;;;;;;;2198799;59;2176;-24
2023/09/18 16:42:28;;;;;;;;;;;;;;;;;;2200194;59;2839;-25
2023/09/18 16:45:01;;;;;;;;;;;;;;;;;;2198632;59;3853;-24
2023/09/18 16:47:33;;;;;;;;;;;;;;;;;;2198974;59;2439;-22
2023/09/18 16:50:04;;;;;;;;;;;;;;;;;;2199782;59;3822;-24
2023/09/18 16:52:35;;;;;;;;;;;;;;;;;;2212494;58;3225;-24
2023/09/18 16:55:06;;;;;;;;;;;;;;;;;;2200472;60;2273;-23
2023/09/18 16:57:36;;;;;;;;;;;;;;;;;;2203026;66;2216;-23
2023/09/18 17:00:11;;;;;;;;;;;;;;;;;;2198999;66;3916;-23
2023/09/18 17:02:41;;;;;;;;;;;;;;;;;;2199368;59;2233;-23
2023/09/18 17:05:12;;;;;;;;;;;;;;;;;;2198564;59;3053;-23
2023/09/18 17:07:45;;;;;;;;;;;;;;;;;;2199709;59;3188;-23
2023/09/18 17:10:16;;;;;;;;;;;;;;;;;;2198897;66;1880;-23
2023/09/18 17:12:47;;;;;;;;;;;;;;;;;;2201399;59;3373;-23
2023/09/18 17:15:18;;;;;;;;;;;;;;;;;;2199792;59;2143;-23
2023/09/18 17:17:48;;;;;;;;;;;;;;;;;;2200345;59;2795;-23
2023/09/18 17:20:18;;;;;;;;;;;;;;;;;;2198818;59;4565;-23
2023/09/18 17:22:49;;;;;;;;;;;;;;;;;;2200528;59;1945;-24
2023/09/18 17:25:19;;;;;;;;;;;;;;;;;;2200222;59;2775;-23
2023/09/18 17:27:49;;;;;;;;;;;;;;;;;;2196137;59;1794;-23
2023/09/18 17:30:20;;;;;;;;;;;;;;;;;;2198833;59;2655;-23
2023/09/18 17:32:50;;;;;;;;;;;;;;;;;;2199641;59;1783;-23